Time;durP1;ratioP1;P1;durP2;ratioP2;P2;SDS_P1;SDS_P2;PMS_P1;PMS_P2;Temp;Humidity;BMP_temperature;BMP_pressure;BME280_temperature;BME280_humidity;BME280_pressure;Samples;Min_cycle;Max_cycle;Signal;HPM_P1;HPM_P2
2023/07/30 00:02:18;;;;;;;8.25;3.47;;;15.20;99.90;;;;;;5107080;28;20040;-70
2023/07/30 00:04:45;;;;;;;9.85;3.85;;;15.10;99.90;;;;;;5104401;28;20044;-69
2023/07/30 00:07:11;;;;;;;7.68;3.30;;;15.10;99.90;;;;;;5103892;28;20173;-71
2023/07/30 00:09:38;;;;;;;11.05;4.22;;;15.10;99.90;;;;;;5112506;28;20104;-71
2023/07/30 00:12:05;;;;;;;9.55;3.75;;;15.10;99.90;;;;;;5106960;28;20039;-69
2023/07/30 00:14:30;;;;;;;14.30;4.13;;;15.10;99.90;;;;;;5110205;27;20088;-70
2023/07/30 00:16:56;;;;;;;10.73;3.65;;;15.10;99.90;;;;;;5094794;27;20134;-69
2023/07/30 00:19:22;;;;;;;8.90;3.90;;;15.00;99.90;;;;;;5097746;28;20059;-71
2023/07/30 00:21:47;;;;;;;10.45;3.80;;;15.00;99.90;;;;;;5112614;27;20130;-71
2023/07/30 00:24:13;;;;;;;12.93;4.85;;;15.00;99.90;;;;;;5108323;27;20058;-70
2023/07/30 00:26:39;;;;;;;11.30;3.95;;;15.00;99.90;;;;;;5115229;27;20035;-69
2023/07/30 00:29:05;;;;;;;10.65;4.30;;;15.00;99.90;;;;;;5131379;27;20134;-71
2023/07/30 00:31:30;;;;;;;9.50;3.28;;;15.00;99.90;;;;;;5134173;27;20027;-70
2023/07/30 00:33:56;;;;;;;9.18;4.03;;;15.00;99.90;;;;;;5136220;27;20566;-70
2023/07/30 00:36:21;;;;;;;9.80;3.78;;;15.00;99.90;;;;;;5136405;27;20426;-70
2023/07/30 00:38:47;;;;;;;9.02;3.55;;;14.90;99.90;;;;;;5135456;27;20038;-70
2023/07/30 00:41:13;;;;;;;12.20;4.10;;;14.90;99.90;;;;;;5124655;27;20066;-71
2023/07/30 00:43:38;;;;;;;14.75;4.18;;;14.90;99.90;;;;;;5098275;27;20059;-70
2023/07/30 00:46:04;;;;;;;13.18;3.50;;;14.90;99.90;;;;;;5115513;27;20108;-71
2023/07/30 00:48:30;;;;;;;11.10;4.30;;;14.90;99.90;;;;;;5115521;27;20035;-70
2023/07/30 00:50:58;;;;;;;15.43;4.20;;;14.90;99.90;;;;;;5122748;27;20042;-71
2023/07/30 00:53:25;;;;;;;13.10;3.75;;;14.90;99.90;;;;;;5115262;27;20046;-69
2023/07/30 00:55:50;;;;;;;10.90;4.10;;;14.90;99.90;;;;;;5115414;27;20051;-72
2023/07/30 00:58:18;;;;;;;11.23;3.85;;;14.90;99.90;;;;;;5127764;27;20054;-69
2023/07/30 01:00:44;;;;;;;8.93;3.35;;;14.90;99.90;;;;;;5118154;27;20474;-70
2023/07/30 01:03:10;;;;;;;12.32;3.90;;;14.90;99.90;;;;;;5115337;27;20496;-70
2023/07/30 01:05:36;;;;;;;10.82;3.92;;;14.80;99.90;;;;;;5098445;27;20039;-70
2023/07/30 01:08:02;;;;;;;12.63;4.38;;;14.80;99.90;;;;;;5115264;27;20031;-70
2023/07/30 01:10:31;;;;;;;9.52;3.33;;;14.80;99.90;;;;;;5116500;27;20108;-71
2023/07/30 01:13:03;;;;;;;12.70;3.90;;;14.80;99.90;;;;;;5120576;27;20051;-70
2023/07/30 01:15:30;;;;;;;14.63;3.78;;;14.80;99.90;;;;;;5125090;27;20089;-71
2023/07/30 01:17:55;;;;;;;14.85;4.43;;;14.80;99.90;;;;;;5123283;27;20046;-69
2023/07/30 01:20:21;;;;;;;13.98;3.75;;;14.80;99.90;;;;;;5118858;27;20047;-69
2023/07/30 01:22:47;;;;;;;14.15;3.85;;;14.90;99.90;;;;;;5129124;27;20070;-70
2023/07/30 01:25:14;;;;;;;16.38;4.93;;;14.80;99.90;;;;;;5126085;27;20027;-70
2023/07/30 01:27:43;;;;;;;11.70;3.58;;;14.80;99.90;;;;;;5117509;27;20050;-69
2023/07/30 01:30:20;;;;;;;14.98;3.78;;;14.90;99.90;;;;;;5120742;27;20030;-70
2023/07/30 01:32:50;;;;;;;8.48;3.05;;;14.80;99.90;;;;;;5117308;27;20469;-71
2023/07/30 01:35:17;;;;;;;13.75;3.47;;;14.80;99.90;;;;;;5115011;27;20049;-69
2023/07/30 01:37:43;;;;;;;13.45;3.40;;;14.80;99.90;;;;;;5114456;27;20043;-70
2023/07/30 01:40:10;;;;;;;14.38;3.80;;;14.80;99.90;;;;;;5132620;27;20035;-71
2023/07/30 01:42:36;;;;;;;12.35;3.60;;;14.80;99.90;;;;;;5130201;27;20046;-69
2023/07/30 01:45:02;;;;;;;12.55;3.72;;;14.80;99.90;;;;;;5124410;27;20455;-71
2023/07/30 01:47:28;;;;;;;14.95;3.42;;;14.80;99.90;;;;;;5115151;27;20082;-69
2023/07/30 01:49:53;;;;;;;7.88;2.80;;;14.80;99.90;;;;;;5126812;27;20035;-70
2023/07/30 01:52:19;;;;;;;9.52;3.47;;;14.70;99.90;;;;;;5135263;27;20451;-70
2023/07/30 01:54:45;;;;;;;7.78;3.28;;;14.70;99.90;;;;;;5134377;27;20039;-71
2023/07/30 01:57:12;;;;;;;10.32;3.20;;;14.70;99.90;;;;;;5128382;27;20066;-70
2023/07/30 01:59:38;;;;;;;12.13;3.20;;;14.70;99.90;;;;;;5114212;27;20042;-70
2023/07/30 02:02:04;;;;;;;11.57;3.20;;;14.70;99.90;;;;;;5113542;27;20051;-70
2023/07/30 02:04:29;;;;;;;9.57;3.10;;;14.70;99.90;;;;;;5117378;27;20386;-70
2023/07/30 02:06:55;;;;;;;11.90;2.95;;;14.60;99.90;;;;;;5103597;27;20493;-70
2023/07/30 02:09:21;;;;;;;11.93;2.97;;;14.60;99.90;;;;;;5133493;27;20045;-69
2023/07/30 02:11:47;;;;;;;11.10;3.05;;;14.60;99.90;;;;;;5099943;27;20090;-70
2023/07/30 02:14:12;;;;;;;12.73;3.10;;;14.60;99.90;;;;;;5115273;27;20123;-70
2023/07/30 02:16:38;;;;;;;10.57;2.55;;;14.60;99.90;;;;;;5116233;27;20046;-70
2023/07/30 02:19:04;;;;;;;12.18;3.15;;;14.60;99.90;;;;;;5127382;27;20046;-70
2023/07/30 02:21:32;;;;;;;9.20;2.90;;;14.60;99.90;;;;;;5120795;27;20127;-69
2023/07/30 02:23:58;;;;;;;9.85;3.15;;;14.60;99.90;;;;;;5114894;27;20043;-71
2023/07/30 02:26:24;;;;;;;11.95;3.38;;;14.60;99.90;;;;;;5098652;27;20082;-70
2023/07/30 02:28:50;;;;;;;13.30;3.30;;;14.60;99.90;;;;;;5108191;27;20154;-71
2023/07/30 02:31:15;;;;;;;8.80;2.53;;;14.60;99.90;;;;;;5107666;27;20039;-70
2023/07/30 02:33:41;;;;;;;12.77;2.83;;;14.60;99.90;;;;;;5114615;27;20042;-71
2023/07/30 02:36:07;;;;;;;9.10;2.60;;;14.60;99.90;;;;;;5117244;27;20058;-71
2023/07/30 02:38:32;;;;;;;9.60;2.55;;;14.60;99.90;;;;;;5128468;27;20388;-70
2023/07/30 02:40:58;;;;;;;8.45;2.97;;;14.70;99.90;;;;;;5103533;27;20045;-71
2023/07/30 02:43:23;;;;;;;11.02;2.28;;;14.70;99.90;;;;;;5115249;27;20031;-71
2023/07/30 02:45:49;;;;;;;12.57;3.05;;;14.60;99.90;;;;;;5118844;27;20047;-69
2023/07/30 02:48:15;;;;;;;11.30;2.55;;;14.70;99.90;;;;;;5117114;27;20066;-70
2023/07/30 02:50:40;;;;;;;13.27;2.83;;;14.60;99.90;;;;;;5115942;27;20469;-70
2023/07/30 02:53:06;;;;;;;13.88;2.65;;;14.70;99.90;;;;;;5128548;27;20121;-71
2023/07/30 02:55:31;;;;;;;10.07;2.60;;;14.70;99.90;;;;;;5113515;27;20046;-70
2023/07/30 02:57:57;;;;;;;11.68;2.75;;;14.70;99.90;;;;;;5123981;27;20030;-70
2023/07/30 03:00:23;;;;;;;11.65;2.67;;;14.70;99.90;;;;;;5131197;27;20041;-71
2023/07/30 03:02:48;;;;;;;12.32;2.67;;;14.70;99.90;;;;;;5128907;27;20113;-70
2023/07/30 03:05:14;;;;;;;10.85;2.95;;;14.70;99.90;;;;;;5099159;27;20122;-70
2023/07/30 03:07:39;;;;;;;11.43;2.42;;;14.70;99.90;;;;;;5114595;27;20042;-69
2023/07/30 03:10:05;;;;;;;11.13;2.78;;;14.70;99.90;;;;;;5123534;27;20485;-69
2023/07/30 03:12:31;;;;;;;11.82;2.97;;;14.80;99.90;;;;;;5117228;27;20059;-70
2023/07/30 03:14:57;;;;;;;10.60;2.72;;;14.80;99.90;;;;;;5116785;27;20058;-69
2023/07/30 03:17:22;;;;;;;7.00;2.80;;;14.80;99.90;;;;;;5121335;27;20046;-70
2023/07/30 03:19:48;;;;;;;12.88;3.40;;;14.80;99.90;;;;;;5132571;27;20046;-70
2023/07/30 03:22:14;;;;;;;10.57;3.10;;;14.80;99.90;;;;;;5105794;27;20126;-70
2023/07/30 03:24:39;;;;;;;10.43;3.00;;;14.80;99.90;;;;;;5114265;27;20039;-70
2023/07/30 03:27:05;;;;;;;11.27;2.90;;;14.80;99.90;;;;;;5125902;27;20046;-70
2023/07/30 03:29:31;;;;;;;10.45;3.10;;;14.80;99.90;;;;;;5131733;27;20038;-69
2023/07/30 03:31:56;;;;;;;12.65;3.10;;;14.80;99.90;;;;;;5113548;27;20058;-70
2023/07/30 03:34:22;;;;;;;10.52;3.20;;;14.80;99.90;;;;;;5112959;27;20046;-69
2023/07/30 03:36:48;;;;;;;11.77;3.03;;;14.80;99.90;;;;;;5116596;27;20043;-69
2023/07/30 03:39:13;;;;;;;14.23;3.10;;;14.80;99.90;;;;;;5095406;27;20039;-70
2023/07/30 03:41:39;;;;;;;9.23;2.95;;;14.80;99.90;;;;;;5113158;27;20106;-70
2023/07/30 03:44:04;;;;;;;9.70;2.38;;;14.80;99.90;;;;;;5113061;27;20035;-70
2023/07/30 03:46:30;;;;;;;11.55;3.15;;;14.80;99.90;;;;;;5115596;27;20493;-69
2023/07/30 03:48:56;;;;;;;13.48;3.08;;;14.80;99.90;;;;;;5121763;27;20113;-70
2023/07/30 03:51:22;;;;;;;12.73;3.05;;;14.80;99.90;;;;;;5120659;27;20046;-71
2023/07/30 03:53:47;;;;;;;10.98;2.80;;;14.80;99.90;;;;;;5126670;27;20043;-70
2023/07/30 03:56:13;;;;;;;13.52;3.35;;;14.70;99.90;;;;;;5112563;27;20075;-70
2023/07/30 03:58:38;;;;;;;8.95;2.70;;;14.70;99.90;;;;;;5125511;27;20039;-71
2023/07/30 04:01:04;;;;;;;11.40;2.80;;;14.70;99.90;;;;;;5115488;27;20046;-70
2023/07/30 04:03:29;;;;;;;8.32;2.80;;;14.70;99.90;;;;;;5132649;27;20034;-70
2023/07/30 04:05:55;;;;;;;10.48;2.80;;;14.70;99.90;;;;;;5121908;27;20397;-71
2023/07/30 04:08:21;;;;;;;10.50;2.95;;;14.70;99.90;;;;;;5124692;27;20051;-70
2023/07/30 04:10:46;;;;;;;12.25;3.70;;;14.70;99.90;;;;;;5116266;27;20091;-71
2023/07/30 04:13:12;;;;;;;11.93;3.05;;;14.60;99.90;;;;;;5116740;27;21079;-70
2023/07/30 04:15:38;;;;;;;11.82;3.22;;;14.60;99.90;;;;;;5115285;27;20059;-70
2023/07/30 04:18:03;;;;;;;11.70;2.97;;;14.70;99.90;;;;;;5116061;27;20043;-70
2023/07/30 04:20:29;;;;;;;13.70;3.63;;;14.60;99.90;;;;;;5120494;27;20043;-69
2023/07/30 04:22:55;;;;;;;10.98;3.45;;;14.70;99.90;;;;;;5111809;27;20082;-70
2023/07/30 04:25:20;;;;;;;12.45;3.20;;;14.70;99.90;;;;;;5121684;27;20130;-71
2023/07/30 04:27:46;;;;;;;13.05;3.95;;;14.70;99.90;;;;;;5130774;27;20083;-72
2023/07/30 04:30:12;;;;;;;12.82;3.60;;;14.70;99.90;;;;;;5133937;27;20142;-70
2023/07/30 04:32:37;;;;;;;10.63;3.60;;;14.70;99.90;;;;;;5125228;27;20393;-69
2023/07/30 04:35:03;;;;;;;15.93;3.70;;;14.70;99.90;;;;;;5113728;27;20038;-69
2023/07/30 04:37:29;;;;;;;12.57;3.38;;;14.70;99.90;;;;;;5115806;27;20466;-69
2023/07/30 04:39:55;;;;;;;13.02;3.85;;;14.80;99.90;;;;;;5131314;27;20121;-71
2023/07/30 04:42:20;;;;;;;16.63;5.20;;;14.80;99.90;;;;;;5118881;27;20260;-70
2023/07/30 04:44:46;;;;;;;12.77;3.50;;;14.80;99.90;;;;;;5123631;27;20042;-70
2023/07/30 04:47:11;;;;;;;10.38;3.17;;;14.90;99.90;;;;;;5128968;27;20050;-70
2023/07/30 04:49:40;;;;;;;15.63;3.17;;;14.90;99.90;;;;;;5135104;27;20050;-70
2023/07/30 04:52:07;;;;;;;13.00;3.35;;;15.00;99.90;;;;;;5121776;27;20131;-70
2023/07/30 04:54:33;;;;;;;14.43;4.63;;;15.00;99.90;;;;;;5119032;27;20050;-70
2023/07/30 04:56:59;;;;;;;17.13;3.72;;;15.00;99.90;;;;;;5134535;27;20047;-70
2023/07/30 04:59:25;;;;;;;14.07;3.70;;;15.10;99.90;;;;;;5122506;27;20038;-70
2023/07/30 05:01:50;;;;;;;13.35;3.50;;;15.10;99.90;;;;;;5123504;27;20110;-70
2023/07/30 05:04:16;;;;;;;16.55;3.58;;;15.20;99.90;;;;;;5117371;27;20035;-70
2023/07/30 05:06:41;;;;;;;11.98;3.55;;;15.20;99.90;;;;;;5118774;27;20507;-69
2023/07/30 05:09:07;;;;;;;13.82;3.50;;;15.20;99.90;;;;;;5128536;27;20095;-69
2023/07/30 05:11:33;;;;;;;11.48;3.75;;;15.30;99.90;;;;;;5123789;27;20044;-69
2023/07/30 05:13:58;;;;;;;13.43;3.67;;;15.30;99.90;;;;;;5135679;27;20043;-70
2023/07/30 05:16:24;;;;;;;18.80;3.92;;;15.30;99.90;;;;;;5135208;27;20050;-69
2023/07/30 05:18:50;;;;;;;14.82;4.15;;;15.40;99.90;;;;;;5135235;27;20099;-69
2023/07/30 05:21:15;;;;;;;14.75;3.95;;;15.30;99.90;;;;;;5127808;27;20039;-69
2023/07/30 05:23:41;;;;;;;17.08;4.43;;;15.40;99.90;;;;;;5135702;27;20445;-69
2023/07/30 05:26:06;;;;;;;12.10;3.95;;;15.40;99.90;;;;;;5120215;27;20043;-68
2023/07/30 05:28:32;;;;;;;16.30;4.30;;;15.50;99.90;;;;;;5101430;27;20053;-68
2023/07/30 05:30:58;;;;;;;14.25;3.80;;;15.50;99.90;;;;;;5125627;27;20050;-67
2023/07/30 05:33:24;;;;;;;14.90;4.13;;;15.50;99.90;;;;;;5097236;27;20043;-69
2023/07/30 05:35:50;;;;;;;17.75;4.28;;;15.60;99.90;;;;;;5115972;27;20043;-68
2023/07/30 05:38:15;;;;;;;18.60;4.32;;;15.60;99.90;;;;;;5126589;27;20074;-67
2023/07/30 05:40:41;;;;;;;13.95;4.00;;;15.60;99.90;;;;;;5128918;27;20118;-68
2023/07/30 05:43:07;;;;;;;19.17;4.05;;;15.70;99.90;;;;;;5126673;27;20031;-69
2023/07/30 05:45:34;;;;;;;14.65;4.07;;;15.70;99.90;;;;;;5134444;27;20088;-70
2023/07/30 05:47:59;;;;;;;17.75;4.40;;;15.70;99.90;;;;;;5134057;27;20038;-68
2023/07/30 05:50:25;;;;;;;16.00;4.15;;;15.70;99.90;;;;;;5124927;27;20053;-68
2023/07/30 05:52:51;;;;;;;15.45;4.22;;;15.70;99.90;;;;;;5121322;27;20073;-68
2023/07/30 05:55:16;;;;;;;14.40;4.53;;;15.70;99.90;;;;;;5113956;27;20383;-68
2023/07/30 05:57:42;;;;;;;15.27;4.15;;;15.80;99.90;;;;;;5117145;27;20362;-69
2023/07/30 06:00:08;;;;;;;18.52;4.75;;;15.80;99.90;;;;;;5124670;27;20602;-69
2023/07/30 06:02:34;;;;;;;16.65;4.03;;;15.90;99.90;;;;;;5107850;27;20046;-70
2023/07/30 06:04:59;;;;;;;12.80;3.92;;;15.90;99.90;;;;;;5131059;27;20034;-68
2023/07/30 06:07:25;;;;;;;14.77;4.43;;;16.00;99.90;;;;;;5127545;27;20073;-68
2023/07/30 06:09:50;;;;;;;20.75;3.80;;;16.00;99.90;;;;;;5127424;27;20153;-68
2023/07/30 06:12:16;;;;;;;16.33;4.63;;;16.00;99.90;;;;;;5127680;27;20045;-69
2023/07/30 06:14:42;;;;;;;13.90;3.97;;;16.00;99.90;;;;;;5124961;27;20043;-68
2023/07/30 06:17:07;;;;;;;14.00;4.20;;;16.10;99.90;;;;;;5112677;27;20052;-68
2023/07/30 06:19:34;;;;;;;14.68;3.97;;;16.10;99.90;;;;;;5112390;27;20039;-69
2023/07/30 06:21:59;;;;;;;15.27;4.15;;;16.10;99.90;;;;;;5109200;27;20036;-68
2023/07/30 06:24:25;;;;;;;17.17;4.28;;;16.10;99.90;;;;;;5110162;27;20375;-69
2023/07/30 06:26:51;;;;;;;17.98;4.00;;;16.10;99.90;;;;;;5110032;27;20039;-68
2023/07/30 06:29:16;;;;;;;16.65;4.50;;;16.20;99.90;;;;;;5107713;28;20036;-69
2023/07/30 06:31:42;;;;;;;13.02;3.97;;;16.20;99.90;;;;;;5109808;28;20039;-69
2023/07/30 06:34:08;;;;;;;16.13;4.03;;;16.20;99.90;;;;;;5112150;27;20363;-68
2023/07/30 06:36:33;;;;;;;17.52;4.10;;;16.30;99.90;;;;;;5111215;27;20036;-68
2023/07/30 06:38:59;;;;;;;17.00;4.22;;;16.40;99.90;;;;;;5107785;28;20036;-68
2023/07/30 06:41:24;;;;;;;15.98;4.00;;;16.50;99.90;;;;;;5108798;28;20036;-68
2023/07/30 06:43:50;;;;;;;13.38;3.50;;;16.60;99.90;;;;;;5110133;28;20127;-67
2023/07/30 06:46:16;;;;;;;19.80;4.35;;;16.60;99.90;;;;;;5107796;28;20033;-67
2023/07/30 06:48:41;;;;;;;16.85;4.10;;;16.80;99.90;;;;;;5109990;28;20055;-67
2023/07/30 06:51:07;;;;;;;15.88;4.10;;;17.00;99.90;;;;;;5106124;28;20042;-67
2023/07/30 06:53:33;;;;;;;13.82;3.55;;;17.00;99.90;;;;;;5092252;28;20089;-67
2023/07/30 06:55:59;;;;;;;17.63;3.78;;;17.10;99.90;;;;;;5109630;28;20035;-68
2023/07/30 06:58:24;;;;;;;13.82;3.90;;;17.10;99.90;;;;;;5109818;28;20047;-67
2023/07/30 07:00:50;;;;;;;14.45;3.63;;;17.10;99.90;;;;;;5110077;28;20131;-67
2023/07/30 07:03:15;;;;;;;14.82;4.45;;;17.20;99.90;;;;;;5110282;28;20138;-67
2023/07/30 07:05:41;;;;;;;15.90;3.88;;;17.20;99.90;;;;;;5109878;28;20107;-67
2023/07/30 07:08:06;;;;;;;17.02;3.42;;;17.20;99.90;;;;;;5093024;28;20043;-67
2023/07/30 07:10:32;;;;;;;17.30;3.22;;;17.30;99.90;;;;;;5092607;28;20039;-67
2023/07/30 07:12:58;;;;;;;19.45;3.30;;;17.30;99.90;;;;;;5110036;28;20130;-67
2023/07/30 07:15:23;;;;;;;18.83;3.70;;;17.30;99.90;;;;;;5112886;27;20055;-67
2023/07/30 07:17:49;;;;;;;15.40;3.70;;;17.40;99.90;;;;;;5113190;27;20047;-67
2023/07/30 07:20:14;;;;;;;11.55;3.33;;;17.40;99.90;;;;;;5113114;27;20027;-67
2023/07/30 07:22:40;;;;;;;14.30;3.38;;;17.60;99.90;;;;;;5096008;27;20114;-67
2023/07/30 07:25:06;;;;;;;16.00;3.45;;;17.70;99.90;;;;;;5112955;27;20046;-68
2023/07/30 07:27:32;;;;;;;14.93;3.63;;;17.80;99.90;;;;;;5113351;27;20549;-67
2023/07/30 07:29:57;;;;;;;10.73;2.60;;;18.10;99.90;;;;;;5131301;27;20038;-67
2023/07/30 07:32:23;;;;;;;13.63;3.47;;;18.20;99.90;;;;;;5128032;27;20030;-67
2023/07/30 07:34:49;;;;;;;15.20;3.20;;;18.10;99.90;;;;;;5133392;27;20409;-67
2023/07/30 07:37:16;;;;;;;16.75;3.45;;;18.10;99.90;;;;;;5133278;27;20142;-67
2023/07/30 07:39:43;;;;;;;15.25;3.67;;;17.90;99.90;;;;;;5151919;27;20083;-67
2023/07/30 07:42:09;;;;;;;16.38;3.80;;;17.80;99.90;;;;;;5136829;27;20480;-67
2023/07/30 07:44:35;;;;;;;13.57;3.42;;;18.00;99.90;;;;;;5137992;27;20034;-67
2023/07/30 07:47:00;;;;;;;12.80;3.30;;;18.20;99.90;;;;;;5155987;27;20088;-67
2023/07/30 07:49:26;;;;;;;10.75;3.55;;;18.50;99.90;;;;;;5137797;27;20030;-67
2023/07/30 07:51:51;;;;;;;11.73;3.20;;;18.80;99.90;;;;;;5156321;27;20031;-67
2023/07/30 07:54:17;;;;;;;13.80;3.15;;;18.90;99.90;;;;;;5137463;27;20034;-67
2023/07/30 07:56:43;;;;;;;11.82;2.95;;;18.90;99.90;;;;;;5137431;27;20040;-68
2023/07/30 07:59:08;;;;;;;13.00;2.50;;;19.00;99.90;;;;;;5137359;27;20107;-67
2023/07/30 08:01:34;;;;;;;11.93;3.08;;;19.10;99.90;;;;;;5137316;27;20038;-67
2023/07/30 08:03:59;;;;;;;9.55;2.30;;;19.00;99.90;;;;;;5137275;27;20095;-67
2023/07/30 08:06:25;;;;;;;11.32;3.22;;;19.20;99.90;;;;;;5119850;27;20539;-67
2023/07/30 08:08:51;;;;;;;10.15;2.25;;;19.30;99.90;;;;;;5137131;27;20122;-68
2023/07/30 08:11:16;;;;;;;11.93;3.08;;;19.40;99.90;;;;;;5136852;27;20053;-67
2023/07/30 08:13:42;;;;;;;10.30;2.55;;;19.40;99.90;;;;;;5137661;27;20053;-67
2023/07/30 08:16:08;;;;;;;14.05;3.35;;;19.30;99.90;;;;;;5136513;27;20083;-68
2023/07/30 08:18:33;;;;;;;12.25;2.80;;;19.20;99.90;;;;;;5137091;27;20085;-67
2023/07/30 08:21:00;;;;;;;9.45;2.67;;;19.20;99.90;;;;;;5136883;27;20035;-67
2023/07/30 08:23:26;;;;;;;10.40;3.00;;;19.10;99.90;;;;;;5137246;27;20039;-67
2023/07/30 08:25:51;;;;;;;11.13;2.92;;;18.90;99.90;;;;;;5136069;27;20031;-67
2023/07/30 08:28:17;;;;;;;11.23;2.90;;;18.90;99.90;;;;;;5119714;27;20047;-68
2023/07/30 08:30:43;;;;;;;11.63;3.20;;;18.90;99.90;;;;;;5137046;27;20030;-67
2023/07/30 08:33:09;;;;;;;13.63;3.33;;;18.80;99.90;;;;;;5136860;27;20038;-67
2023/07/30 08:35:34;;;;;;;12.88;3.22;;;18.70;99.90;;;;;;5136773;27;20127;-67
2023/07/30 08:38:00;;;;;;;13.88;4.00;;;18.70;99.90;;;;;;5136426;27;20080;-68
2023/07/30 08:40:26;;;;;;;11.45;3.83;;;18.80;99.90;;;;;;5136702;27;20111;-67
2023/07/30 08:42:52;;;;;;;12.25;3.30;;;18.80;99.90;;;;;;5136551;27;20035;-68
2023/07/30 08:45:18;;;;;;;10.82;3.35;;;18.80;99.90;;;;;;5136517;27;20030;-68
2023/07/30 08:47:44;;;;;;;12.60;3.53;;;18.90;99.90;;;;;;5136534;27;20046;-68
2023/07/30 08:50:10;;;;;;;14.98;4.13;;;19.00;99.90;;;;;;5118820;27;20047;-68
2023/07/30 08:52:36;;;;;;;12.20;3.53;;;19.30;99.90;;;;;;5135727;27;20038;-67
2023/07/30 08:55:03;;;;;;;10.82;2.88;;;19.40;99.90;;;;;;5136594;27;20041;-67
2023/07/30 08:57:30;;;;;;;13.35;4.05;;;19.30;99.90;;;;;;5136516;27;20435;-68
2023/07/30 09:00:08;;;;;;;13.90;4.07;;;19.00;99.90;;;;;;5136377;27;20034;-67
2023/07/30 09:02:47;;;;;;;14.80;3.30;;;18.80;99.90;;;;;;5136130;27;20030;-68
2023/07/30 09:05:13;;;;;;;10.23;3.08;;;18.70;99.90;;;;;;5136356;27;20357;-67
2023/07/30 09:07:39;;;;;;;9.00;2.50;;;18.60;99.90;;;;;;5136204;27;20497;-67
2023/07/30 09:10:05;;;;;;;13.15;3.30;;;18.50;99.90;;;;;;5135770;27;20075;-67
2023/07/30 09:12:32;;;;;;;10.82;2.90;;;18.40;99.90;;;;;;5135812;27;20042;-67
2023/07/30 09:14:58;;;;;;;11.43;3.00;;;18.30;99.90;;;;;;5136230;27;20043;-67
2023/07/30 09:17:25;;;;;;;12.20;3.08;;;18.20;99.90;;;;;;5154343;27;20080;-67
2023/07/30 09:19:52;;;;;;;14.45;3.13;;;18.20;99.90;;;;;;5128179;27;20035;-67
2023/07/30 09:22:38;;;;;;;14.27;2.97;;;18.10;99.90;;;;;;5115139;27;20096;-67
2023/07/30 09:25:04;;;;;;;10.85;3.10;;;18.10;99.90;;;;;;5115114;27;20123;-67
2023/07/30 09:27:32;;;;;;;14.75;3.42;;;18.10;99.90;;;;;;5115338;27;20135;-67
2023/07/30 09:29:59;;;;;;;10.65;2.40;;;18.00;99.90;;;;;;5115349;27;20043;-67
2023/07/30 09:32:33;;;;;;;11.68;3.00;;;17.90;99.90;;;;;;5115247;27;20042;-67
2023/07/30 09:35:08;;;;;;;8.75;1.92;;;17.60;99.90;;;;;;5115343;27;20039;-68
2023/07/30 09:37:39;;;;;;;9.88;1.80;;;17.00;99.90;;;;;;5114802;27;20031;-67
2023/07/30 09:40:11;;;;;;;8.65;1.90;;;16.50;99.90;;;;;;5098125;27;20043;-67
2023/07/30 09:42:40;;;;;;;;;;;16.10;99.90;;;;;;5115542;27;20500;-68
2023/07/30 09:45:09;;;;;;;9.52;1.67;;;15.70;99.90;;;;;;5114837;27;19916;-67
2023/07/30 09:47:38;;;;;;;11.45;2.00;;;15.40;99.90;;;;;;5114713;27;20042;-68
2023/07/30 09:50:04;;;;;;;12.95;1.70;;;15.30;99.90;;;;;;5114893;27;20164;-68
2023/07/30 09:52:30;;;;;;;7.65;1.52;;;15.30;99.90;;;;;;5114670;27;20038;-68
2023/07/30 09:54:58;;;;;;;5.75;1.58;;;15.20;99.90;;;;;;5114734;27;20039;-67
2023/07/30 09:57:24;;;;;;;6.50;1.60;;;15.30;99.90;;;;;;5114395;27;20088;-67
2023/07/30 09:59:49;;;;;;;8.68;1.63;;;15.30;99.90;;;;;;5114771;27;20489;-68
2023/07/30 10:02:17;;;;;;;8.25;1.70;;;15.40;99.90;;;;;;5114359;27;20104;-67
2023/07/30 10:04:48;;;;;;;7.70;2.22;;;15.50;99.90;;;;;;5113492;27;20085;-67
2023/07/30 10:07:21;;;;;;;9.82;2.13;;;15.70;99.90;;;;;;5114637;27;20412;-67
2023/07/30 10:09:50;;;;;;;8.45;1.95;;;15.80;99.90;;;;;;5114639;27;20038;-67
2023/07/30 10:12:21;;;;;;;10.25;2.20;;;16.00;99.90;;;;;;5114149;27;20080;-68
2023/07/30 10:14:47;;;;;;;8.68;2.40;;;16.30;99.90;;;;;;5116166;27;20046;-68
2023/07/30 10:17:13;;;;;;;9.30;2.13;;;16.50;99.90;;;;;;5116908;27;20050;-68
2023/07/30 10:19:38;;;;;;;8.07;2.00;;;16.90;99.90;;;;;;5134639;27;20053;-68
2023/07/30 10:22:13;;;;;;;7.40;1.83;;;17.30;99.90;;;;;;5135172;27;20046;-68
2023/07/30 10:24:55;;;;;;;7.82;2.03;;;17.80;99.90;;;;;;5134455;27;20046;-68
2023/07/30 10:27:24;;;;;;;7.60;2.03;;;18.30;99.90;;;;;;5134360;27;20053;-67
2023/07/30 10:30:08;;;;;;;9.25;1.90;;;18.60;99.90;;;;;;5134490;27;20051;-68
2023/07/30 10:33:00;;;;;;;10.20;2.08;;;18.60;99.90;;;;;;5134462;27;20039;-68
2023/07/30 10:35:37;;;;;;;9.75;2.00;;;18.40;99.90;;;;;;5134409;27;20871;-68
2023/07/30 10:38:14;;;;;;;8.98;1.92;;;18.30;99.90;;;;;;5117224;27;20026;-67
2023/07/30 10:40:40;;;;;;;11.23;2.22;;;18.10;99.90;;;;;;5133997;27;20038;-67
2023/07/30 10:43:16;;;;;;;7.03;1.90;;;17.90;99.90;;;;;;5134339;27;20393;-68
2023/07/30 10:45:49;;;;;;;11.27;2.05;;;18.10;99.90;;;;;;5134030;27;20120;-67
2023/07/30 10:48:16;;;;;;;8.82;1.98;;;18.30;99.90;;;;;;5134438;27;20058;-68
2023/07/30 10:50:41;;;;;;;8.15;1.77;;;18.60;99.90;;;;;;5134012;27;20058;-68
2023/07/30 10:53:08;;;;;;;10.50;2.03;;;18.70;99.90;;;;;;5116645;27;20042;-68
2023/07/30 10:55:34;;;;;;;6.55;1.63;;;18.60;99.90;;;;;;5134113;27;20038;-67
2023/07/30 10:58:01;;;;;;;8.65;2.20;;;18.60;99.90;;;;;;5133947;27;20477;-68
2023/07/30 11:00:26;;;;;;;6.60;1.50;;;18.80;99.90;;;;;;5133947;27;20105;-68
2023/07/30 11:02:55;;;;;;;7.40;1.38;;;19.10;99.90;;;;;;5133958;27;20506;-68
2023/07/30 11:05:21;;;;;;;7.82;1.75;;;19.20;99.90;;;;;;5134287;27;20392;-68
2023/07/30 11:07:51;;;;;;;6.63;1.38;;;19.20;99.90;;;;;;5133616;27;20129;-67
2023/07/30 11:10:17;;;;;;;6.68;1.50;;;19.10;99.90;;;;;;5134013;27;20373;-67
2023/07/30 11:12:43;;;;;;;10.40;1.75;;;18.90;99.90;;;;;;5116697;27;20070;-67
2023/07/30 11:15:09;;;;;;;8.35;1.80;;;19.10;99.90;;;;;;5112847;27;20495;-67
2023/07/30 11:17:35;;;;;;;6.53;1.95;;;19.40;99.90;;;;;;5113041;27;20047;-68
2023/07/30 11:20:02;;;;;;;5.10;1.60;;;19.70;99.90;;;;;;5113049;27;20038;-67
2023/07/30 11:22:32;;;;;;;9.05;1.73;;;19.90;99.90;;;;;;5113027;27;20038;-67
2023/07/30 11:24:57;;;;;;;7.63;1.73;;;20.00;99.90;;;;;;5113045;27;20045;-68
2023/07/30 11:27:23;;;;;;;9.02;1.60;;;20.10;99.90;;;;;;5129361;27;20031;-68
2023/07/30 11:29:58;;;;;;;9.60;2.20;;;20.10;99.90;;;;;;5115895;27;20046;-68
2023/07/30 11:32:25;;;;;;;7.85;1.60;;;19.90;99.90;;;;;;5133814;27;20041;-68
2023/07/30 11:34:53;;;;;;;7.90;1.50;;;19.90;99.90;;;;;;5133294;27;20047;-68
2023/07/30 11:37:21;;;;;;;9.32;1.85;;;20.00;99.90;;;;;;5133433;27;20043;-67
2023/07/30 11:39:46;;;;;;;7.80;1.73;;;20.00;99.90;;;;;;5133533;27;20050;-68
2023/07/30 11:42:13;;;;;;;7.82;1.80;;;19.80;99.90;;;;;;5133591;27;20039;-68
2023/07/30 11:44:39;;;;;;;9.95;1.90;;;19.70;99.90;;;;;;5116227;27;20385;-68
2023/07/30 11:47:09;;;;;;;9.43;1.50;;;19.70;99.90;;;;;;5133361;27;20026;-67
2023/07/30 11:49:35;;;;;;;7.20;1.60;;;19.70;99.90;;;;;;5133655;27;20049;-68
2023/07/30 11:52:10;;;;;;;7.32;1.70;;;19.60;99.90;;;;;;5133628;27;20388;-67
2023/07/30 11:54:36;;;;;;;8.43;1.83;;;19.50;99.90;;;;;;5133400;27;20171;-67
2023/07/30 11:57:02;;;;;;;5.38;1.70;;;19.40;99.90;;;;;;5133304;27;20095;-67
2023/07/30 11:59:30;;;;;;;5.15;1.10;;;19.30;99.90;;;;;;5133141;27;20106;-68
2023/07/30 12:01:55;;;;;;;6.40;1.55;;;19.30;99.90;;;;;;5133416;27;20045;-67
2023/07/30 12:04:21;;;;;;;7.15;1.30;;;19.40;99.90;;;;;;5133143;27;20038;-68
2023/07/30 12:06:49;;;;;;;5.25;1.55;;;19.40;99.90;;;;;;5117522;27;20035;-68
2023/07/30 12:09:18;;;;;;;8.35;1.50;;;19.40;99.90;;;;;;5112594;27;20047;-68
2023/07/30 12:11:52;;;;;;;7.15;1.58;;;19.50;99.90;;;;;;5095421;27;20047;-67
2023/07/30 12:14:19;;;;;;;5.60;1.30;;;19.40;99.90;;;;;;5112535;27;20035;-68
2023/07/30 12:16:45;;;;;;;7.18;1.52;;;19.50;99.90;;;;;;5112373;27;20409;-67
2023/07/30 12:19:11;;;;;;;6.68;1.70;;;19.80;99.90;;;;;;5112669;27;20489;-67
2023/07/30 12:21:36;;;;;;;6.30;1.95;;;20.10;99.90;;;;;;5112576;28;20067;-67
2023/07/30 12:24:03;;;;;;;5.75;1.55;;;20.30;99.90;;;;;;5112344;27;20116;-68
2023/07/30 12:26:29;;;;;;;7.30;1.60;;;20.50;99.90;;;;;;5132229;27;20572;-68
2023/07/30 12:28:55;;;;;;;6.25;1.60;;;20.40;99.90;;;;;;5136779;27;20141;-67
2023/07/30 12:31:20;;;;;;;6.00;1.30;;;20.30;99.90;;;;;;5136459;27;20114;-67
2023/07/30 12:33:46;;;;;;;8.38;2.05;;;20.30;99.90;;;;;;5136993;27;20074;-68
2023/07/30 12:36:12;;;;;;;7.20;1.70;;;20.30;99.90;;;;;;5137084;27;20031;-67
2023/07/30 12:38:37;;;;;;;6.78;1.50;;;20.10;99.90;;;;;;5136796;27;20064;-68